Stations météo

réclame
Mon MeteoGroup
Monte Scuro, Italie (16344): Température de l'air & dewpoint: 06.12.2017 07:00:00 - 12.12.2017 07:00:00 (CET)Monte Scuro, Italie (16344): Vitesse du vent: 06.12.2017 07:00:00 - 12.12.2017 07:00:00 (CET)Monte Scuro, Italie (16344): Direction du vent: 06.12.2017 07:00:00 - 12.12.2017 07:00:00 (CET)Monte Scuro, Italie (16344): visibility: 06.12.2017 07:00:00 - 12.12.2017 07:00:00 (CET)Monte Scuro, Italie (16344): Ensoleillement: 06.12.2017 07:00:00 - 12.12.2017 07:00:00 (CET)
Date & Time tt [°C] td [°C] ff [km/h] ff [knt] dd vv [km] sd [min]
12.12.2017 07:00:00 3,8 2,6 18 10 SSW 20 -
12.12.2017 06:00:00 4,0 0,9 11 6 SW 10 -
12.12.2017 05:00:00 5,0 -4,3 15 8 SSW 10 -
12.12.2017 04:00:00 5,0 -0,8 15 8 SSW 10 -
12.12.2017 03:00:00 5,0 -4,3 15 8 SSW 10 -
12.12.2017 02:00:00 5,0 -2,9 15 8 SSW 10 -
12.12.2017 01:00:00 5,0 -4,0 18 10 SSW 10 -
12.12.2017 00:00:00 5,0 -2,9 18 10 SSW 10 -
11.12.2017 23:00:00 4,8 -2,1 18 10 E 10 -
11.12.2017 22:00:00 5,0 -1,0 41 22 SSW 10 -
11.12.2017 21:00:00 4,4 0,0 29 16 SSW 10 -
11.12.2017 20:00:00 4,4 2,4 29 16 SSW 10 -
11.12.2017 19:00:00 4,4 3,8 39 21 SSW 8 -
11.12.2017 18:00:00 4,6 4,0 18 10 SSW 10 0
11.12.2017 17:00:00 4,2 0,4 15 8 SSW 6 6
11.12.2017 16:00:00 4,4 3,8 18 10 SSW 6 0
11.12.2017 15:00:00 4,8 4,2 18 10 SSW 8 0
11.12.2017 14:00:00 4,8 4,2 18 10 SSW 10 6
11.12.2017 13:00:00 4,2 2,2 18 10 SSW 10 36
11.12.2017 12:00:00 4,0 2,0 11 6 SSW 10 36
11.12.2017 11:00:00 4,0 2,0 18 10 SSW 10 30
11.12.2017 10:00:00 1,2 0,8 34 18 W 10 0
11.12.2017 09:00:00 0,6 0,3 28 15 W - 0
11.12.2017 08:00:00 0,4 0,1 28 15 WSW 10 0
11.12.2017 07:00:00 0,0 -4,8 34 18 WSW 15 -
11.12.2017 06:00:00 -1,2 -2,2 37 20 W 10 -
11.12.2017 05:00:00 -1,4 -2,0 34 18 WSW 10 -
11.12.2017 04:00:00 -1,4 -2,8 34 18 WSW 10 -
11.12.2017 03:00:00 -1,0 -1,4 37 20 W 10 -
11.12.2017 02:00:00 -1,2 -1,6 37 20 W 10 -
11.12.2017 01:00:00 -1,2 -1,6 34 18 W 10 -
11.12.2017 00:00:00 -1,2 -1,6 37 20 W 10 -
10.12.2017 23:00:00 -1,2 -1,8 46 25 W 10 -
10.12.2017 22:00:00 -1,6 -1,7 34 18 W - -
10.12.2017 21:00:00 -1,6 -2,0 34 18 W - -
10.12.2017 20:00:00 -1,8 -2,1 34 18 W - -
10.12.2017 19:00:00 -1,6 -1,7 34 18 W - -
10.12.2017 18:00:00 -1,8 -2,1 34 18 W - 0
10.12.2017 17:00:00 -1,8 -2,1 28 15 W - 0
10.12.2017 16:00:00 -1,8 -2,8 34 18 W 15 0
10.12.2017 15:00:00 -1,8 -2,8 34 18 W 15 0
10.12.2017 14:00:00 -2,0 -3,0 34 18 W 15 0
10.12.2017 13:00:00 -2,0 -2,4 28 15 W 10 0
10.12.2017 12:00:00 -2,4 -2,7 28 15 W - 0
10.12.2017 11:00:00 -2,6 -2,9 28 15 W 10 0
10.12.2017 10:00:00 -2,4 -3,7 28 15 W 20 0
10.12.2017 09:00:00 -2,4 -3,8 22 12 W 20 0
10.12.2017 08:00:00 -2,8 -4,2 24 13 W 20 0
10.12.2017 07:00:00 -2,8 -4,2 29 16 W 15 -
10.12.2017 06:00:00 -2,4 -3,8 29 16 W 10 -
10.12.2017 05:00:00 -2,4 -3,8 29 16 W 10 -
10.12.2017 04:00:00 -2,0 -3,4 29 16 SW 10 -
10.12.2017 03:00:00 -2,0 -3,1 34 18 SW 10 -
10.12.2017 02:00:00 -1,6 -2,3 34 18 W - -
10.12.2017 01:00:00 -1,6 -2,3 34 18 W - -
10.12.2017 00:00:00 -1,4 -2,1 37 20 W - -
09.12.2017 23:00:00 -1,6 -2,3 34 18 W - -
09.12.2017 22:00:00 -1,4 -2,1 37 20 W - -
09.12.2017 21:00:00 -1,4 -2,1 37 20 W - -
09.12.2017 20:00:00 -1,0 -1,7 34 18 W - -
09.12.2017 19:00:00 -0,2 -0,9 37 20 W - -
09.12.2017 18:00:00 0,0 -0,7 37 20 W - -
09.12.2017 17:00:00 0,0 -0,7 34 18 W - 0
09.12.2017 16:00:00 0,4 -0,3 46 25 W - 0
09.12.2017 15:00:00 0,8 0,1 46 25 W - 0
09.12.2017 14:00:00 1,2 0,5 34 18 W - 0
09.12.2017 13:00:00 1,2 0,5 34 18 W - 0
09.12.2017 12:00:00 1,2 0,5 34 18 WNW - 0
09.12.2017 11:00:00 1,0 0,3 34 18 SW - 0
09.12.2017 10:00:00 1,0 1,0 31 17 WNW - 0
09.12.2017 09:00:00 0,8 0,8 35 19 WNW - 0
09.12.2017 08:00:00 0,6 0,6 37 20 W - 0
09.12.2017 07:00:00 0,6 0,6 37 20 WNW - 0
09.12.2017 06:00:00 1,0 1,0 29 16 NW - -
09.12.2017 05:00:00 1,0 1,0 24 13 NW - -
09.12.2017 04:00:00 1,0 1,0 31 17 NW - -
09.12.2017 03:00:00 1,0 1,0 31 17 W - -
09.12.2017 02:00:00 0,8 0,8 26 14 WNW - -
09.12.2017 01:00:00 0,8 0,8 29 16 W - -
09.12.2017 00:00:00 1,0 1,0 35 19 WNW - -
08.12.2017 23:00:00 1,0 1,0 29 16 WNW - -
08.12.2017 22:00:00 1,0 1,0 28 15 WNW - -
08.12.2017 21:00:00 1,0 1,0 28 15 WNW - -
08.12.2017 20:00:00 1,0 1,0 26 14 WNW - -
08.12.2017 19:00:00 1,0 1,0 28 15 W - -
08.12.2017 18:00:00 0,8 0,8 29 16 W - 0
08.12.2017 17:00:00 1,0 1,0 29 16 WNW - 12
08.12.2017 16:00:00 2,0 2,0 21 11 WNW - 0
08.12.2017 15:00:00 2,2 2,2 21 11 WNW - 0
08.12.2017 14:00:00 2,0 2,0 29 16 WNW - 0
08.12.2017 13:00:00 1,6 1,6 24 13 W - 0
08.12.2017 12:00:00 1,6 1,6 28 15 WNW - 0
08.12.2017 11:00:00 1,6 1,6 28 15 W - 0
08.12.2017 10:00:00 1,2 1,2 11 6 WSW - 0
08.12.2017 09:00:00 1,0 1,0 11 6 SW - 0
08.12.2017 08:00:00 1,0 1,0 11 6 SW - 0
08.12.2017 07:00:00 1,0 1,0 9 5 SSW 15 -
08.12.2017 06:00:00 3,0 -12,5 9 5 SSW 10 -
08.12.2017 05:00:00 3,0 -12,9 8 4 SW 10 -
08.12.2017 04:00:00 4,2 -15,1 8 4 SW 10 -
08.12.2017 03:00:00 4,0 -17,0 8 4 SW 10 -
08.12.2017 02:00:00 4,0 -19,6 8 4 SW 10 -
08.12.2017 01:00:00 4,0 -12,9 9 5 SW 10 -
08.12.2017 00:00:00 4,0 -14,3 9 5 SSW 10 -
07.12.2017 23:00:00 4,2 -14,1 8 4 SW 10 -
07.12.2017 22:00:00 4,2 -12,7 9 5 SSW 10 -
07.12.2017 21:00:00 4,4 -12,5 0 0 N 10 -
07.12.2017 20:00:00 4,0 -12,0 9 5 WSW 10 -
07.12.2017 19:00:00 4,0 -12,9 9 5 SW 10 -
07.12.2017 18:00:00 4,8 -12,6 11 6 SW 10 -
07.12.2017 17:00:00 5,0 -13,4 11 6 SW 15 -
07.12.2017 16:00:00 5,2 -1,0 13 7 SSW 25 60
07.12.2017 15:00:00 4,4 1,2 11 6 SW 25 60
07.12.2017 14:00:00 4,4 1,6 11 6 WSW 25 60
07.12.2017 13:00:00 5,0 -0,4 8 4 WSW 25 60
07.12.2017 12:00:00 6,0 -11,6 9 5 W 25 60
07.12.2017 11:00:00 6,0 -14,1 9 5 W 25 60
07.12.2017 10:00:00 5,2 -14,8 11 6 SSW 30 60
07.12.2017 09:00:00 4,8 -17,1 8 4 SSW 30 60
07.12.2017 08:00:00 4,0 -16,0 18 10 SW 20 60
07.12.2017 07:00:00 3,0 -16,1 11 6 SSW 15 -
07.12.2017 06:00:00 2,0 -12,8 11 6 SSW 10 -
07.12.2017 05:00:00 2,0 -12,8 11 6 SSW 10 -
07.12.2017 04:00:00 2,0 -11,4 8 4 SW 10 -
07.12.2017 03:00:00 - - - - - - -
07.12.2017 02:00:00 - - - - - - -
07.12.2017 01:00:00 2,0 -12,8 18 10 SSW 10 -
07.12.2017 00:00:00 - - - - - - -
06.12.2017 23:00:00 2,0 -11,4 11 6 SSW 10 -
06.12.2017 22:00:00 2,0 -11,8 11 6 SSW 10 -
06.12.2017 21:00:00 2,0 -11,0 8 4 SSW 10 -
06.12.2017 20:00:00 2,0 -11,8 15 8 SW 10 -
06.12.2017 19:00:00 2,0 -11,9 18 10 SW 10 -
06.12.2017 18:00:00 2,0 -11,4 15 8 SW 10 0
06.12.2017 17:00:00 2,0 -7,1 15 8 SW 15 30
06.12.2017 16:00:00 2,8 -2,8 11 6 W 30 60
06.12.2017 15:00:00 2,8 -3,3 11 6 W 30 60
06.12.2017 14:00:00 2,0 -2,1 11 6 SSW 30 60
06.12.2017 13:00:00 2,0 -2,1 11 6 W 30 0
06.12.2017 12:00:00 2,0 -2,1 15 8 W 30 60
06.12.2017 11:00:00 1,2 -4,7 11 6 SSW 30 60
06.12.2017 10:00:00 0,2 -5,4 18 10 NNE 25 60
06.12.2017 09:00:00 -1,0 -3,5 15 8 NNE 25 60
06.12.2017 08:00:00 -1,6 -2,2 15 8 NNE 20 12
06.12.2017 07:00:00 -2,2 -2,5 22 12 NNE - -

tt = Température de l'air
td = dewpoint
ff = Vitesse du vent
dd = Direction du vent
vv = visibility
sd = Ensoleillement

stations d'obs. à proximité